Aeroporto :
LOGIN :

Iscrizione | Disclaimer

   EN    FR    IT 

 










Sommario :    VFR   VFR Marginale   IFR   IFR Intensivo   IFR Molto Intensivo
Visibilità : 
Base nubi : 
>= 8 km
>= 3000ft
5 / 8 km
1000 / 3000 ft
1500m / 5 km
500 / 1000 ft
800 / 1500m
200 / 500 ft
< 800m
< 200 ft
Simboli :   Temporali  Nebbia  Neve Forte  Precipitazioni Forti  Vento > 20 kt
SIGMETs :   Varie  Temporali  Ghiacco  Turbolenza  Onda orograficha  Ceneri Vulcaniche






- Altitudine del aeroporto : 137 ft
- Codice IATA : ARN


ESSA - Stockholm-Arlanda

ULTIMO METAR :
  • 021250Z 23020KT 9999 BKN049 07/M03 Q0982 R01L/09//95 R01R/09//95 R08/09//95 NOSIG

METARs OBSOLETI :
  • 021220Z 22020KT 9999 BKN048 07/M03 Q0983 R01L/09//95 R01R/09//95 R08/09//95 NOSIG
  • 021150Z 23022KT 9999 BKN045 07/M02 Q0984 R01L/09//95 R01R/09//95 R08/09//95 NOSIG
  • 021120Z 22024G35KT 9999 BKN048 08/M03 Q0984 R01L/09//95 R01R/09//95 R08/09//95 NOSIG
  • 021050Z 21022KT 9999 BKN047 08/M03 Q0984 R01L/09//95 R01R/09//95 R08/09//95 NOSIG

TAF TAF ESSA
Valido dal 02 a 12 ore il 03 a 12 ore UTC


021130Z 0212/0312 22020G30KT 9999 BKN050
TEMPO 0215/0219 25025G40KT 4000 SHRASN BKN012 BKN020CB
PROB40 0216/0217 TS
PROB40 0222/0302 2000 -SN VV014
BECMG 0223/0301 28018G30KT



MetMap, La meteo Aeronautica in un colpo d'occhio ! - Copyright ORBIFLY Dicembre 2007 - Disclaimer

ORBIFLY MET'MAP TEAM :

Programmazione e sviluppo : Alexandra Zaïnal
Concezione : Baudouin d'Aumeries
Aiuto per la programmazione : Marc-Olivier Méhu
Supporto tecnico e logistico : Manuel Goepfert
Aiuto per la traduzione : Arnaldo La Scala

Contatto : metmap@orbifly.com




FONTI E CREDITI :

   NOAA